sensor_id;sensor_type;location;lat;lon;timestamp;P1;durP1;ratioP1;P2;durP2;ratioP2
63112;SDS011;49206;48.020;21.378;2022-09-09T00:37:42;7.32;;;5.97;;
63112;SDS011;49206;48.020;21.378;2022-09-09T00:47:51;9.68;;;5.60;;
63112;SDS011;49206;48.020;21.378;2022-09-09T00:57:58;7.05;;;4.00;;
63112;SDS011;49206;48.020;21.378;2022-09-09T01:18:11;7.97;;;5.60;;
63112;SDS011;49206;48.020;21.378;2022-09-09T01:28:20;7.80;;;5.53;;
63112;SDS011;49206;48.020;21.378;2022-09-09T01:38:32;8.93;;;5.13;;
63112;SDS011;49206;48.020;21.378;2022-09-09T01:54:35;4.72;;;4.07;;
63112;SDS011;49206;48.020;21.378;2022-09-09T02:10:37;3.47;;;3.10;;
63112;SDS011;49206;48.020;21.378;2022-09-09T02:20:53;5.22;;;3.03;;
63112;SDS011;49206;48.020;21.378;2022-09-09T02:30:56;4.78;;;4.00;;
63112;SDS011;49206;48.020;21.378;2022-09-09T02:41:07;3.58;;;3.28;;
63112;SDS011;49206;48.020;21.378;2022-09-09T03:01:47;3.83;;;3.42;;
63112;SDS011;49206;48.020;21.378;2022-09-09T03:11:51;6.35;;;3.63;;
63112;SDS011;49206;48.020;21.378;2022-09-09T03:32:23;5.07;;;4.57;;
63112;SDS011;49206;48.020;21.378;2022-09-09T03:42:39;4.30;;;3.50;;
63112;SDS011;49206;48.020;21.378;2022-09-09T03:52:43;3.85;;;3.55;;
63112;SDS011;49206;48.020;21.378;2022-09-09T04:12:20;5.03;;;4.03;;
63112;SDS011;49206;48.020;21.378;2022-09-09T04:29:43;6.88;;;4.32;;
63112;SDS011;49206;48.020;21.378;2022-09-09T04:39:48;7.78;;;4.95;;
63112;SDS011;49206;48.020;21.378;2022-09-09T04:49:51;6.65;;;4.57;;
63112;SDS011;49206;48.020;21.378;2022-09-09T04:59:56;5.20;;;4.60;;
63112;SDS011;49206;48.020;21.378;2022-09-09T05:09:59;7.45;;;4.60;;
63112;SDS011;49206;48.020;21.378;2022-09-09T05:20:02;7.55;;;5.57;;
63112;SDS011;49206;48.020;21.378;2022-09-09T05:51:36;6.15;;;4.32;;
63112;SDS011;49206;48.020;21.378;2022-09-09T06:01:44;9.65;;;4.72;;
63112;SDS011;49206;48.020;21.378;2022-09-09T06:11:55;7.15;;;5.25;;
63112;SDS011;49206;48.020;21.378;2022-09-09T06:22:00;7.40;;;6.20;;
63112;SDS011;49206;48.020;21.378;2022-09-09T06:32:06;9.15;;;6.70;;
63112;SDS011;49206;48.020;21.378;2022-09-09T06:48:28;8.88;;;6.75;;
63112;SDS011;49206;48.020;21.378;2022-09-09T06:58:33;7.38;;;5.40;;
63112;SDS011;49206;48.020;21.378;2022-09-09T07:08:37;8.48;;;6.22;;
63112;SDS011;49206;48.020;21.378;2022-09-09T07:18:40;8.75;;;6.30;;
63112;SDS011;49206;48.020;21.378;2022-09-09T07:28:44;8.65;;;6.50;;
63112;SDS011;49206;48.020;21.378;2022-09-09T07:43:38;9.65;;;8.55;;
63112;SDS011;49206;48.020;21.378;2022-09-09T07:53:44;11.45;;;7.85;;
63112;SDS011;49206;48.020;21.378;2022-09-09T08:03:52;8.50;;;7.07;;
63112;SDS011;49206;48.020;21.378;2022-09-09T08:14:04;10.52;;;7.88;;
63112;SDS011;49206;48.020;21.378;2022-09-09T08:24:08;10.88;;;8.82;;
63112;SDS011;49206;48.020;21.378;2022-09-09T08:34:12;8.57;;;7.50;;
63112;SDS011;49206;48.020;21.378;2022-09-09T08:54:20;9.38;;;7.85;;
63112;SDS011;49206;48.020;21.378;2022-09-09T09:14:56;10.77;;;9.07;;
63112;SDS011;49206;48.020;21.378;2022-09-09T09:35:34;18.17;;;12.40;;
63112;SDS011;49206;48.020;21.378;2022-09-09T09:45:45;14.25;;;11.07;;
63112;SDS011;49206;48.020;21.378;2022-09-09T09:56:10;12.20;;;10.68;;
63112;SDS011;49206;48.020;21.378;2022-09-09T10:06:15;13.55;;;11.48;;
63112;SDS011;49206;48.020;21.378;2022-09-09T10:57:31;5.45;;;4.22;;
63112;SDS011;49206;48.020;21.378;2022-09-09T11:18:01;4.50;;;3.60;;
63112;SDS011;49206;48.020;21.378;2022-09-09T11:38:52;4.35;;;3.95;;
63112;SDS011;49206;48.020;21.378;2022-09-09T11:49:00;4.40;;;3.55;;
63112;SDS011;49206;48.020;21.378;2022-09-09T11:59:05;3.33;;;3.13;;
63112;SDS011;49206;48.020;21.378;2022-09-09T12:09:31;3.90;;;3.25;;
63112;SDS011;49206;48.020;21.378;2022-09-09T12:19:40;3.15;;;2.92;;
63112;SDS011;49206;48.020;21.378;2022-09-09T12:29:58;2.92;;;2.72;;
63112;SDS011;49206;48.020;21.378;2022-09-09T12:40:04;2.67;;;2.47;;
63112;SDS011;49206;48.020;21.378;2022-09-09T12:50:31;2.88;;;2.67;;
63112;SDS011;49206;48.020;21.378;2022-09-09T13:00:35;2.95;;;2.42;;
63112;SDS011;49206;48.020;21.378;2022-09-09T13:10:43;2.33;;;2.20;;
63112;SDS011;49206;48.020;21.378;2022-09-09T13:21:01;2.03;;;1.92;;
63112;SDS011;49206;48.020;21.378;2022-09-09T13:31:05;2.38;;;2.17;;
63112;SDS011;49206;48.020;21.378;2022-09-09T13:41:21;2.85;;;2.40;;
63112;SDS011;49206;48.020;21.378;2022-09-09T13:51:29;3.70;;;2.70;;
63112;SDS011;49206;48.020;21.378;2022-09-09T14:01:36;5.25;;;2.80;;
63112;SDS011;49206;48.020;21.378;2022-09-09T14:11:39;3.67;;;2.85;;
63112;SDS011;49206;48.020;21.378;2022-09-09T14:21:42;3.00;;;2.80;;
63112;SDS011;49206;48.020;21.378;2022-09-09T14:31:45;3.45;;;3.00;;
63112;SDS011;49206;48.020;21.378;2022-09-09T14:41:47;3.00;;;2.63;;
63112;SDS011;49206;48.020;21.378;2022-09-09T14:51:50;2.90;;;2.70;;
63112;SDS011;49206;48.020;21.378;2022-09-09T15:01:52;3.03;;;2.80;;
63112;SDS011;49206;48.020;21.378;2022-09-09T15:11:57;5.40;;;3.55;;
63112;SDS011;49206;48.020;21.378;2022-09-09T15:22:00;3.15;;;2.90;;
63112;SDS011;49206;48.020;21.378;2022-09-09T15:32:02;3.15;;;2.92;;
63112;SDS011;49206;48.020;21.378;2022-09-09T15:42:04;3.08;;;2.88;;
63112;SDS011;49206;48.020;21.378;2022-09-09T15:52:09;4.97;;;3.30;;
63112;SDS011;49206;48.020;21.378;2022-09-09T16:02:13;3.42;;;3.13;;
63112;SDS011;49206;48.020;21.378;2022-09-09T16:12:15;3.58;;;3.28;;
63112;SDS011;49206;48.020;21.378;2022-09-09T16:22:18;4.30;;;3.25;;
63112;SDS011;49206;48.020;21.378;2022-09-09T16:32:20;3.28;;;2.97;;
63112;SDS011;49206;48.020;21.378;2022-09-09T16:42:26;5.13;;;3.53;;
63112;SDS011;49206;48.020;21.378;2022-09-09T16:52:29;3.80;;;3.45;;
63112;SDS011;49206;48.020;21.378;2022-09-09T17:02:32;5.25;;;3.33;;
63112;SDS011;49206;48.020;21.378;2022-09-09T17:12:34;4.65;;;3.50;;
63112;SDS011;49206;48.020;21.378;2022-09-09T17:22:43;3.65;;;3.35;;
63112;SDS011;49206;48.020;21.378;2022-09-09T17:32:45;6.78;;;4.45;;
63112;SDS011;49206;48.020;21.378;2022-09-09T17:42:48;3.78;;;3.47;;
63112;SDS011;49206;48.020;21.378;2022-09-09T17:52:51;4.47;;;3.72;;
63112;SDS011;49206;48.020;21.378;2022-09-09T18:02:54;3.97;;;3.25;;
63112;SDS011;49206;48.020;21.378;2022-09-09T18:12:57;4.43;;;3.92;;
63112;SDS011;49206;48.020;21.378;2022-09-09T18:23:02;4.30;;;3.85;;
63112;SDS011;49206;48.020;21.378;2022-09-09T18:33:05;4.32;;;3.85;;
63112;SDS011;49206;48.020;21.378;2022-09-09T18:43:09;4.82;;;3.55;;
63112;SDS011;49206;48.020;21.378;2022-09-09T18:53:13;3.60;;;3.30;;
63112;SDS011;49206;48.020;21.378;2022-09-09T19:03:16;3.65;;;3.35;;
63112;SDS011;49206;48.020;21.378;2022-09-09T19:13:20;3.85;;;3.45;;
63112;SDS011;49206;48.020;21.378;2022-09-09T19:23:23;4.30;;;3.25;;
63112;SDS011;49206;48.020;21.378;2022-09-09T19:33:31;4.05;;;3.47;;
63112;SDS011;49206;48.020;21.378;2022-09-09T19:43:34;4.03;;;3.03;;
63112;SDS011;49206;48.020;21.378;2022-09-09T20:03:41;5.57;;;3.25;;
63112;SDS011;49206;48.020;21.378;2022-09-09T20:13:46;7.30;;;3.97;;
63112;SDS011;49206;48.020;21.378;2022-09-09T20:23:50;4.38;;;3.95;;
63112;SDS011;49206;48.020;21.378;2022-09-09T20:33:53;5.70;;;4.88;;
63112;SDS011;49206;48.020;21.378;2022-09-09T20:43:58;6.28;;;4.90;;
63112;SDS011;49206;48.020;21.378;2022-09-09T20:54:03;7.05;;;4.78;;
63112;SDS011;49206;48.020;21.378;2022-09-09T21:04:12;9.23;;;5.97;;
63112;SDS011;49206;48.020;21.378;2022-09-09T21:14:16;5.72;;;4.80;;
63112;SDS011;49206;48.020;21.378;2022-09-09T21:24:18;5.78;;;5.18;;
63112;SDS011;49206;48.020;21.378;2022-09-09T21:34:21;6.38;;;5.28;;
63112;SDS011;49206;48.020;21.378;2022-09-09T21:44:23;7.82;;;5.93;;
63112;SDS011;49206;48.020;21.378;2022-09-09T21:54:30;9.23;;;4.95;;
63112;SDS011;49206;48.020;21.378;2022-09-09T22:04:34;7.05;;;5.35;;
63112;SDS011;49206;48.020;21.378;2022-09-09T22:14:37;6.72;;;5.50;;
63112;SDS011;49206;48.020;21.378;2022-09-09T22:24:40;5.38;;;4.72;;
63112;SDS011;49206;48.020;21.378;2022-09-09T22:34:43;5.15;;;4.43;;
63112;SDS011;49206;48.020;21.378;2022-09-09T22:44:47;6.35;;;4.93;;
63112;SDS011;49206;48.020;21.378;2022-09-09T22:54:49;6.50;;;5.00;;
63112;SDS011;49206;48.020;21.378;2022-09-09T23:04:53;5.90;;;4.93;;
63112;SDS011;49206;48.020;21.378;2022-09-09T23:14:55;7.15;;;5.10;;
63112;SDS011;49206;48.020;21.378;2022-09-09T23:24:57;6.30;;;5.03;;
63112;SDS011;49206;48.020;21.378;2022-09-09T23:35:01;5.80;;;5.22;;
63112;SDS011;49206;48.020;21.378;2022-09-09T23:45:03;7.00;;;5.53;;
63112;SDS011;49206;48.020;21.378;2022-09-09T23:55:07;7.18;;;5.43;;
